Guatay, CA (91931)

12:52 AM PST on November 27, 2014 (GMT -0800)
Falcon's Lair - Noble Cyn. | Change Station
CLOSE
Current Station
Personal Weather Station
Location: Pine Valley, CA
Elevation: 3727 ft
Nearby Weather Stations

Elev 3727 ft 32.84 °N, 116.52 °W | Updated 4 seconds ago

Clear
Clear
61.3 °F
Feels Like 61.3 °F
N
0.0
Wind Variable Wind from SW
Gusts 5.4 mph

Today
High -- | Low -- °F
--% Chance of Precip.
Yesterday
High -- | Low -- °F
Precip. -- in
6:27 AM 4:40 PM
Waxing Crescent, 27% visible
Pressure 30.10 in
Visibility -9999.0 miles
Clouds
Dew Point 8 °F
Humidity 12%
Rainfall -999.00 in
Snow Depth Not available.
UV Not available.
Pollen 2.60 out of 12
Air Quality Not available.
Flu Activity Not available.
METAR KCZZ 270752Z AUTO 00000KT 19/M09 A3019 RMK AO1 SLP191 T01941089 402500056 $

More Conditions Fewer Conditions

Pressure 30.10 in
Visibility -9999.0 miles
Clouds
Dew Point 8 °F
Humidity 12%
Rainfall -999.00 in
Snow Depth Not available.
UV Not available.
Pollen 2.60 out of 12
Air Quality Not available.
Flu Activity Not available.
METAR KCZZ 270752Z AUTO 00000KT 19/M09 A3019 RMK AO1 SLP191 T01941089 402500056 $

More Conditions Fewer Conditions

10-Day Weather Forecast

Almanac

Astronomy

Nov. 27, 2014 Rise Set
Actual Time
Civil Twilight
Nautical Twilight
Astronomical Twilight
Moon
Length of Visible Light
Length of Day
Tomorrow will be .
, % of the Moon is Illuminated

Today's Extremes

State Highs State Lows

Community

WunderPhotos

Upload Photos

1,773,965 photos uploaded!

WunderBlogs® & News

Nearby

Air Quality

  Air Quality AQ Index Pollutant
Not available.

Snow Depth

Station Depth Elevation

Earthquake Activity

City Distance Mag. Time & Date
Minimum magnitude displayed is 2.5.

Coastal Water Temperatures

Place Temperature

Nearby Weather Stations